Time;durP1;ratioP1;P1;durP2;ratioP2;P2;SDS_P1;SDS_P2;PMS_P1;PMS_P2;Temp;Humidity;BMP_temperature;BMP_pressure;BME280_temperature;BME280_humidity;BME280_pressure;Samples;Min_cycle;Max_cycle;Signal;HPM_P1;HPM_P2
2023/03/10 00:00:29;;;;;;;3.88;1.83;;;;;;;;;;4995067;28;20029;-75
2023/03/10 00:03:14;;;;;;;4.13;1.73;;;;;;;;;;4986563;28;20035;-76
2023/03/10 00:06:00;;;;;;;3.88;1.95;;;;;;;;;;4977002;28;20032;-81
2023/03/10 00:08:46;;;;;;;4.18;1.70;;;;;;;;;;4987766;28;20034;-80
2023/03/10 00:11:31;;;;;;;6.35;1.90;;;;;;;;;;4981084;28;20038;-82
2023/03/10 00:14:17;;;;;;;5.35;2.53;;;;;;;;;;4986766;28;20084;-77
2023/03/10 00:17:03;;;;;;;4.97;1.83;;;;;;;;;;4990138;28;20041;-78
2023/03/10 00:19:48;;;;;;;3.15;1.67;;;;;;;;;;4972366;28;20029;-72
2023/03/10 00:22:42;;;;;;;8.00;3.38;;;;;;;;;;4980180;28;20042;-75
2023/03/10 00:25:27;;;;;;;2.95;1.63;;;;;;;;;;4988895;28;20390;-74
2023/03/10 00:28:12;;;;;;;5.20;1.63;;;;;;;;;;4985996;28;20038;-74
2023/03/10 00:30:58;;;;;;;5.45;1.63;;;;;;;;;;4963276;28;20038;-74
2023/03/10 00:33:43;;;;;;;5.25;2.08;;;;;;;;;;4973360;28;20029;-75
2023/03/10 00:36:29;;;;;;;4.65;1.52;;;;;;;;;;4972794;28;20038;-74
2023/03/10 00:39:15;;;;;;;5.80;1.73;;;;;;;;;;5003702;28;20040;-70
2023/03/10 00:42:00;;;;;;;3.05;1.40;;;;;;;;;;4983694;28;20118;-81
2023/03/10 00:44:45;;;;;;;5.03;1.40;;;;;;;;;;4991889;28;20076;-81
2023/03/10 00:47:31;;;;;;;3.83;1.48;;;;;;;;;;4994128;28;20052;-78
2023/03/10 00:50:16;;;;;;;4.55;1.33;;;;;;;;;;4969591;28;20064;-79
2023/03/10 00:53:01;;;;;;;6.72;1.90;;;;;;;;;;4991502;28;20478;-78
2023/03/10 00:56:00;;;;;;;3.70;1.45;;;;;;;;;;4991360;28;20548;-77
2023/03/10 00:58:46;;;;;;;5.00;1.60;;;;;;;;;;4984780;28;20033;-74
2023/03/10 01:01:35;;;;;;;4.53;1.70;;;;;;;;;;4980651;28;20057;-73
2023/03/10 01:04:20;;;;;;;5.57;1.57;;;;;;;;;;4993336;28;20084;-73
2023/03/10 01:07:06;;;;;;;5.63;1.77;;;;;;;;;;4973188;28;20025;-73
2023/03/10 01:09:51;;;;;;;3.47;1.80;;;;;;;;;;4981018;28;20072;-75
2023/03/10 01:12:36;;;;;;;4.05;1.63;;;;;;;;;;4987466;28;20041;-73
2023/03/10 01:15:21;;;;;;;4.32;1.40;;;;;;;;;;4989966;28;20413;-72
2023/03/10 01:18:07;;;;;;;2.88;1.27;;;;;;;;;;4991877;28;20394;-73
2023/03/10 01:20:52;;;;;;;5.38;1.60;;;;;;;;;;4981931;28;20502;-73
2023/03/10 01:23:37;;;;;;;2.70;1.55;;;;;;;;;;4991071;28;20030;-73
2023/03/10 01:26:22;;;;;;;2.47;1.30;;;;;;;;;;4993058;28;20039;-73
2023/03/10 01:29:08;;;;;;;3.45;1.33;;;;;;;;;;4992445;28;20057;-73
2023/03/10 01:31:53;;;;;;;2.97;1.33;;;;;;;;;;4987636;28;20029;-73
2023/03/10 01:34:38;;;;;;;3.20;1.40;;;;;;;;;;4987319;28;20041;-74
2023/03/10 01:37:23;;;;;;;6.15;1.20;;;;;;;;;;4993979;28;20033;-72
2023/03/10 01:40:12;;;;;;;3.10;1.70;;;;;;;;;;4975999;28;20050;-73
2023/03/10 01:43:36;;;;;;;5.13;1.45;;;;;;;;;;4985167;28;20025;-73
2023/03/10 01:46:30;;;;;;;2.83;1.52;;;;;;;;;;4946041;28;20097;-73
2023/03/10 01:49:33;;;;;;;4.00;2.10;;;;;;;;;;4931205;28;20027;-76
2023/03/10 01:52:23;;;;;;;5.35;1.67;;;;;;;;;;4900432;28;20686;-73
2023/03/10 01:55:08;;;;;;;;;;;;;;;;;;4923639;28;20503;-75
2023/03/10 01:57:54;;;;;;;2.78;1.40;;;;;;;;;;4920888;28;19961;-75
2023/03/10 02:00:40;;;;;;;4.93;1.58;;;;;;;;;;4938292;28;20060;-74
2023/03/10 02:03:27;;;;;;;2.28;0.93;;;;;;;;;;4921654;28;20119;-75
2023/03/10 02:06:13;;;;;;;3.33;1.73;;;;;;;;;;4926428;28;20058;-74
2023/03/10 02:09:00;;;;;;;4.00;1.38;;;;;;;;;;4931990;28;20105;-80
2023/03/10 02:11:47;;;;;;;3.83;1.27;;;;;;;;;;4922985;29;20039;-79
2023/03/10 02:14:34;;;;;;;2.20;1.45;;;;;;;;;;4940230;28;20062;-73
2023/03/10 02:17:21;;;;;;;2.25;1.00;;;;;;;;;;4966521;28;20034;-73
2023/03/10 02:20:25;;;;;;;3.78;1.27;;;;;;;;;;4987266;28;20057;-73
2023/03/10 02:23:14;;;;;;;2.70;0.90;;;;;;;;;;4990507;28;20028;-73
2023/03/10 02:26:22;;;;;;;4.32;1.55;;;;;;;;;;4971309;28;20584;-73
2023/03/10 02:29:12;;;;;;;1.38;0.90;;;;;;;;;;4991856;28;20025;-75
2023/03/10 02:31:58;;;;;;;2.13;0.80;;;;;;;;;;4991655;28;20065;-77
2023/03/10 02:34:43;;;;;;;3.15;0.93;;;;;;;;;;4987647;28;20116;-77
2023/03/10 02:37:30;;;;;;;1.58;0.85;;;;;;;;;;4986138;28;20033;-76
2023/03/10 02:40:36;;;;;;;3.65;1.35;;;;;;;;;;4994227;28;20032;-78
2023/03/10 02:43:23;;;;;;;2.15;1.23;;;;;;;;;;4975960;28;20029;-78
2023/03/10 02:46:09;;;;;;;1.35;0.80;;;;;;;;;;5002587;28;20044;-74
2023/03/10 02:48:57;;;;;;;2.65;0.93;;;;;;;;;;4986620;28;20084;-71
2023/03/10 02:51:44;;;;;;;2.20;0.88;;;;;;;;;;4991184;28;20034;-79
2023/03/10 02:54:29;;;;;;;2.45;1.00;;;;;;;;;;4992242;28;20021;-78
2023/03/10 02:57:14;;;;;;;1.58;1.15;;;;;;;;;;4965682;28;20058;-80
2023/03/10 02:59:59;;;;;;;1.67;1.10;;;;;;;;;;4975868;28;20474;-80
2023/03/10 03:02:45;;;;;;;2.58;1.00;;;;;;;;;;4993672;28;20112;-79
2023/03/10 03:05:30;;;;;;;2.50;1.02;;;;;;;;;;4991078;28;20085;-74
2023/03/10 03:08:16;;;;;;;1.25;1.08;;;;;;;;;;4991622;28;20037;-74
2023/03/10 03:11:01;;;;;;;1.55;0.80;;;;;;;;;;4977200;28;20036;-74
2023/03/10 03:13:46;;;;;;;1.02;0.68;;;;;;;;;;4989848;28;20156;-74
2023/03/10 03:16:32;;;;;;;0.98;0.88;;;;;;;;;;4987761;28;20332;-73
2023/03/10 03:19:17;;;;;;;3.63;1.40;;;;;;;;;;5003940;28;20087;-72
2023/03/10 03:22:02;;;;;;;1.23;0.60;;;;;;;;;;4985715;28;20052;-75
2023/03/10 03:24:47;;;;;;;1.83;0.90;;;;;;;;;;4987190;28;20208;-76
2023/03/10 03:27:33;;;;;;;1.42;0.70;;;;;;;;;;4987094;28;20499;-73
2023/03/10 03:30:20;;;;;;;2.60;0.98;;;;;;;;;;4988981;28;20053;-72
2023/03/10 03:33:06;;;;;;;3.38;1.30;;;;;;;;;;4970081;28;20512;-73
2023/03/10 03:35:51;;;;;;;2.25;1.00;;;;;;;;;;4962049;28;20385;-72
2023/03/10 03:38:36;;;;;;;3.03;1.90;;;;;;;;;;4987858;28;20030;-72
2023/03/10 03:41:21;;;;;;;1.20;0.80;;;;;;;;;;4985885;28;20053;-73
2023/03/10 03:44:07;;;;;;;2.25;1.08;;;;;;;;;;4980924;28;20414;-74
2023/03/10 03:46:52;;;;;;;1.30;0.80;;;;;;;;;;4983673;28;20506;-76
2023/03/10 03:49:38;;;;;;;1.00;0.80;;;;;;;;;;4998476;28;20225;-76
2023/03/10 03:52:23;;;;;;;1.50;0.70;;;;;;;;;;4989977;28;20037;-77
2023/03/10 03:55:09;;;;;;;1.17;0.77;;;;;;;;;;5001790;28;20030;-77
2023/03/10 03:57:54;;;;;;;1.52;0.95;;;;;;;;;;4987952;28;20512;-76
2023/03/10 04:00:39;;;;;;;1.90;0.88;;;;;;;;;;4987927;28;20111;-76
2023/03/10 04:03:25;;;;;;;0.60;0.60;;;;;;;;;;4985071;28;20034;-74
2023/03/10 04:06:10;;;;;;;1.25;0.90;;;;;;;;;;4990318;28;20633;-75
2023/03/10 04:08:55;;;;;;;0.55;0.50;;;;;;;;;;4984040;28;20026;-73
2023/03/10 04:11:40;;;;;;;0.52;0.50;;;;;;;;;;4983058;28;20046;-74
2023/03/10 04:14:26;;;;;;;2.60;0.70;;;;;;;;;;4989719;28;20061;-74
2023/03/10 04:17:11;;;;;;;3.05;0.90;;;;;;;;;;4982947;28;20076;-73
2023/03/10 04:19:56;;;;;;;1.70;0.63;;;;;;;;;;4996660;28;20160;-73
2023/03/10 04:22:41;;;;;;;1.40;0.80;;;;;;;;;;4992650;28;20224;-71
2023/03/10 04:25:27;;;;;;;0.75;0.60;;;;;;;;;;4975926;28;20058;-70
2023/03/10 04:28:12;;;;;;;0.60;0.60;;;;;;;;;;4993291;28;20034;-71
2023/03/10 04:30:57;;;;;;;0.60;0.60;;;;;;;;;;4982373;28;20022;-72
2023/03/10 04:33:42;;;;;;;0.73;0.70;;;;;;;;;;4996293;28;20045;-74
2023/03/10 04:36:28;;;;;;;2.17;1.30;;;;;;;;;;4987034;28;20033;-77
2023/03/10 04:39:13;;;;;;;1.95;0.70;;;;;;;;;;4995460;28;20029;-72
2023/03/10 04:41:59;;;;;;;2.17;0.80;;;;;;;;;;4987161;28;20480;-72
2023/03/10 04:44:44;;;;;;;1.65;0.68;;;;;;;;;;4990009;28;20027;-71
2023/03/10 04:47:29;;;;;;;0.82;0.60;;;;;;;;;;4986403;28;20023;-71
2023/03/10 04:50:16;;;;;;;1.10;0.70;;;;;;;;;;4993176;28;20041;-71
2023/03/10 04:53:01;;;;;;;0.80;0.70;;;;;;;;;;5000509;28;20041;-71
2023/03/10 04:55:46;;;;;;;2.53;0.70;;;;;;;;;;4989271;28;20045;-76
2023/03/10 04:58:32;;;;;;;2.53;0.90;;;;;;;;;;4987876;28;20042;-72
2023/03/10 05:01:18;;;;;;;5.07;0.95;;;;;;;;;;4992972;28;20034;-71
2023/03/10 05:04:03;;;;;;;0.70;0.70;;;;;;;;;;4987657;28;20539;-73
2023/03/10 05:06:50;;;;;;;2.83;0.70;;;;;;;;;;4985344;28;20543;-72
2023/03/10 05:09:36;;;;;;;1.65;0.70;;;;;;;;;;4990912;28;20026;-72
2023/03/10 05:12:21;;;;;;;1.05;0.68;;;;;;;;;;4982379;28;20420;-71
2023/03/10 05:15:07;;;;;;;2.05;0.80;;;;;;;;;;4986907;28;20458;-71
2023/03/10 05:17:52;;;;;;;0.80;0.80;;;;;;;;;;4992954;28;20033;-74
2023/03/10 05:20:37;;;;;;;3.13;1.15;;;;;;;;;;4996488;28;20044;-77
2023/03/10 05:23:23;;;;;;;0.93;0.70;;;;;;;;;;4996746;28;20038;-75
2023/03/10 05:26:09;;;;;;;3.45;0.77;;;;;;;;;;4999847;28;20042;-76
2023/03/10 05:28:55;;;;;;;0.70;0.70;;;;;;;;;;4986432;28;20146;-75
2023/03/10 05:31:41;;;;;;;1.15;0.75;;;;;;;;;;4995655;28;20042;-71
2023/03/10 05:34:26;;;;;;;2.13;0.82;;;;;;;;;;4982541;28;20026;-71
2023/03/10 05:37:11;;;;;;;1.48;0.70;;;;;;;;;;4995475;28;20436;-73
2023/03/10 05:39:58;;;;;;;2.97;1.00;;;;;;;;;;4994474;28;20136;-73
2023/03/10 05:42:43;;;;;;;2.30;1.00;;;;;;;;;;4989842;28;20095;-72
2023/03/10 05:45:28;;;;;;;2.85;0.80;;;;;;;;;;4995723;28;20117;-71
2023/03/10 05:48:13;;;;;;;3.55;1.27;;;;;;;;;;4992698;28;20025;-71
2023/03/10 05:51:00;;;;;;;3.40;1.25;;;;;;;;;;4995840;28;20033;-75
2023/03/10 05:53:46;;;;;;;1.80;1.48;;;;;;;;;;4989032;28;20425;-76
2023/03/10 05:56:31;;;;;;;3.55;1.10;;;;;;;;;;4990678;28;20030;-77
2023/03/10 05:59:16;;;;;;;2.45;1.20;;;;;;;;;;4992912;28;20374;-76
2023/03/10 06:02:02;;;;;;;1.75;1.02;;;;;;;;;;4992452;28;20385;-77
2023/03/10 06:04:47;;;;;;;3.25;1.23;;;;;;;;;;4986998;28;20639;-76
2023/03/10 06:07:32;;;;;;;6.90;1.45;;;;;;;;;;4990224;28;20033;-76
2023/03/10 06:10:18;;;;;;;3.25;0.95;;;;;;;;;;5000423;28;20018;-77
2023/03/10 06:13:03;;;;;;;3.75;1.52;;;;;;;;;;4990982;28;20116;-71
2023/03/10 06:15:52;;;;;;;4.60;1.35;;;;;;;;;;4991486;28;20405;-71
2023/03/10 06:18:37;;;;;;;2.28;1.00;;;;;;;;;;4993843;28;20038;-70
2023/03/10 06:21:24;;;;;;;1.15;1.00;;;;;;;;;;4993547;28;20079;-71
2023/03/10 06:24:09;;;;;;;1.48;0.88;;;;;;;;;;4989460;28;20038;-72
2023/03/10 06:26:54;;;;;;;3.20;0.77;;;;;;;;;;4983726;28;20069;-76
2023/03/10 06:29:39;;;;;;;0.82;0.77;;;;;;;;;;5000438;28;20587;-76
2023/03/10 06:32:25;;;;;;;1.65;0.80;;;;;;;;;;4987677;28;20680;-74
2023/03/10 06:35:13;;;;;;;2.95;0.75;;;;;;;;;;4983375;28;20033;-73
2023/03/10 06:37:59;;;;;;;3.45;1.05;;;;;;;;;;4971221;28;20738;-74
2023/03/10 06:40:44;;;;;;;1.25;0.70;;;;;;;;;;4989155;28;20041;-73
2023/03/10 06:43:29;;;;;;;3.17;0.80;;;;;;;;;;4990199;28;20026;-72
2023/03/10 06:46:15;;;;;;;1.20;0.80;;;;;;;;;;4990612;28;20026;-71
2023/03/10 06:49:00;;;;;;;0.73;0.60;;;;;;;;;;4976318;28;20030;-71
2023/03/10 06:51:45;;;;;;;1.80;0.80;;;;;;;;;;4988499;28;20096;-71
2023/03/10 06:54:31;;;;;;;1.30;1.15;;;;;;;;;;4987600;28;20034;-72
2023/03/10 06:57:16;;;;;;;1.23;0.82;;;;;;;;;;4987928;28;20096;-71
2023/03/10 07:00:01;;;;;;;2.15;0.70;;;;;;;;;;4989328;28;20092;-73
2023/03/10 07:02:46;;;;;;;2.00;0.88;;;;;;;;;;4990869;28;20025;-66
2023/03/10 07:05:32;;;;;;;2.22;0.80;;;;;;;;;;4989256;28;20431;-73
2023/03/10 07:08:17;;;;;;;3.20;0.90;;;;;;;;;;4990701;28;20029;-71
2023/03/10 07:11:02;;;;;;;2.97;0.75;;;;;;;;;;4987312;28;20037;-72
2023/03/10 07:13:49;;;;;;;4.25;1.13;;;;;;;;;;4978173;28;20485;-78
2023/03/10 07:16:37;;;;;;;2.70;1.10;;;;;;;;;;4954241;28;20044;-77
2023/03/10 07:19:49;;;;;;;2.90;1.25;;;;;;;;;;4988687;28;20061;-78
2023/03/10 07:22:34;;;;;;;2.92;1.30;;;;;;;;;;4976225;28;20073;-74
2023/03/10 07:25:19;;;;;;;1.70;0.80;;;;;;;;;;4987802;28;20037;-75
2023/03/10 07:28:05;;;;;;;1.20;0.80;;;;;;;;;;4984048;28;20067;-75
2023/03/10 07:30:51;;;;;;;2.13;0.90;;;;;;;;;;4984501;28;20061;-76
2023/03/10 07:33:37;;;;;;;2.33;0.90;;;;;;;;;;4991061;28;20017;-76
2023/03/10 07:36:23;;;;;;;1.48;0.82;;;;;;;;;;4980758;28;20046;-75
2023/03/10 07:39:08;;;;;;;1.58;1.00;;;;;;;;;;4977737;28;20518;-77
2023/03/10 07:41:53;;;;;;;1.88;0.77;;;;;;;;;;4968517;28;20030;-73
2023/03/10 07:44:39;;;;;;;3.95;0.95;;;;;;;;;;4986769;28;20037;-74
2023/03/10 07:47:24;;;;;;;4.55;1.02;;;;;;;;;;4987519;28;20113;-75
2023/03/10 07:50:09;;;;;;;1.25;0.80;;;;;;;;;;4974127;28;20034;-72
2023/03/10 07:52:55;;;;;;;2.38;0.90;;;;;;;;;;4969353;28;20044;-74
2023/03/10 07:55:40;;;;;;;1.33;0.85;;;;;;;;;;4994327;28;20038;-73
2023/03/10 07:58:25;;;;;;;3.67;0.80;;;;;;;;;;4968309;28;20605;-74
2023/03/10 08:01:14;;;;;;;1.50;1.02;;;;;;;;;;4965673;28;20583;-74
2023/03/10 08:03:59;;;;;;;2.25;1.10;;;;;;;;;;4981599;28;20041;-75
2023/03/10 08:06:46;;;;;;;4.85;2.03;;;;;;;;;;4992924;28;20030;-73
2023/03/10 08:09:31;;;;;;;3.92;1.42;;;;;;;;;;4972198;28;20123;-73
2023/03/10 08:12:17;;;;;;;2.45;0.77;;;;;;;;;;4983556;28;20067;-72
2023/03/10 08:15:04;;;;;;;5.35;1.58;;;;;;;;;;4970076;28;20029;-72
2023/03/10 08:17:49;;;;;;;2.53;1.13;;;;;;;;;;4983096;28;20026;-75
2023/03/10 08:20:35;;;;;;;0.98;0.80;;;;;;;;;;4984973;28;20209;-76
2023/03/10 08:23:20;;;;;;;3.70;0.88;;;;;;;;;;4981471;28;20138;-76
2023/03/10 08:26:07;;;;;;;1.92;0.80;;;;;;;;;;4976937;28;20034;-80
2023/03/10 08:28:53;;;;;;;1.90;0.82;;;;;;;;;;4981829;28;20038;-78
2023/03/10 08:31:38;;;;;;;1.67;0.77;;;;;;;;;;4983104;28;20501;-75
2023/03/10 08:34:24;;;;;;;3.90;0.80;;;;;;;;;;4980687;28;20088;-75
2023/03/10 08:37:09;;;;;;;2.35;1.10;;;;;;;;;;4982474;28;20325;-77
2023/03/10 08:39:56;;;;;;;3.83;0.77;;;;;;;;;;4971538;28;20026;-78
2023/03/10 08:42:41;;;;;;;2.45;0.70;;;;;;;;;;4980655;28;20037;-79
2023/03/10 08:45:26;;;;;;;1.10;0.80;;;;;;;;;;4993758;28;20046;-78
2023/03/10 08:48:12;;;;;;;2.03;1.10;;;;;;;;;;4966986;28;20535;-77
2023/03/10 08:50:57;;;;;;;1.52;0.80;;;;;;;;;;4982006;28;20026;-79
2023/03/10 08:53:45;;;;;;;1.60;0.85;;;;;;;;;;4978467;28;20109;-78
2023/03/10 08:56:30;;;;;;;1.23;0.68;;;;;;;;;;4975943;28;20038;-74
2023/03/10 08:59:17;;;;;;;0.60;0.60;;;;;;;;;;4985263;28;20033;-77
2023/03/10 09:02:02;;;;;;;1.80;0.90;;;;;;;;;;4981321;28;20125;-77
2023/03/10 09:04:48;;;;;;;1.95;1.15;;;;;;;;;;4977693;28;20038;-81
2023/03/10 09:07:36;;;;;;;2.88;0.80;;;;;;;;;;4979236;28;20069;-76
2023/03/10 09:10:21;;;;;;;0.75;0.60;;;;;;;;;;4994554;28;20018;-77
2023/03/10 09:13:07;;;;;;;1.35;0.80;;;;;;;;;;4980967;28;20640;-76
2023/03/10 09:15:52;;;;;;;4.65;2.30;;;;;;;;;;4977484;28;20038;-72
2023/03/10 09:18:37;;;;;;;2.72;0.88;;;;;;;;;;4987882;28;20030;-71
2023/03/10 09:21:23;;;;;;;2.97;1.15;;;;;;;;;;4985214;28;20575;-74
2023/03/10 09:24:08;;;;;;;1.65;0.90;;;;;;;;;;4984021;28;20109;-72
2023/03/10 09:26:55;;;;;;;1.58;0.75;;;;;;;;;;4988076;28;20038;-73
2023/03/10 09:29:40;;;;;;;2.75;1.00;;;;;;;;;;4968594;28;20549;-73
2023/03/10 09:32:26;;;;;;;3.13;0.90;;;;;;;;;;4985397;28;20037;-75
2023/03/10 09:35:11;;;;;;;2.58;0.80;;;;;;;;;;4981764;28;20084;-79
2023/03/10 09:37:56;;;;;;;4.45;0.90;;;;;;;;;;4982638;28;20544;-79
2023/03/10 09:40:49;;;;;;;3.00;1.35;;;;;;;;;;4970706;28;20225;-75
2023/03/10 09:43:36;;;;;;;3.15;0.90;;;;;;;;;;4987407;28;20037;-79
2023/03/10 09:46:24;;;;;;;2.45;0.90;;;;;;;;;;4985456;28;20563;-76
2023/03/10 09:49:18;;;;;;;1.42;0.90;;;;;;;;;;4983254;28;20034;-74
2023/03/10 09:52:22;;;;;;;4.40;0.80;;;;;;;;;;4986743;28;20095;-76
2023/03/10 09:55:19;;;;;;;2.85;1.13;;;;;;;;;;4982250;28;20034;-71
2023/03/10 09:58:04;;;;;;;3.13;0.70;;;;;;;;;;4985761;28;20358;-73
2023/03/10 10:00:49;;;;;;;3.92;1.33;;;;;;;;;;4967588;28;20045;-71
2023/03/10 10:03:36;;;;;;;1.67;0.85;;;;;;;;;;4978200;28;20516;-75
2023/03/10 10:06:25;;;;;;;3.15;1.08;;;;;;;;;;4984274;28;20038;-70
2023/03/10 10:09:29;;;;;;;6.30;1.27;;;;;;;;;;4983730;28;20034;-76
2023/03/10 10:12:16;;;;;;;1.50;0.82;;;;;;;;;;4973429;28;20045;-75
2023/03/10 10:15:06;;;;;;;2.95;1.20;;;;;;;;;;4989140;28;20671;-77
2023/03/10 10:17:51;;;;;;;2.90;0.82;;;;;;;;;;4982369;28;20037;-74
2023/03/10 10:20:42;;;;;;;3.25;1.02;;;;;;;;;;4981716;28;20104;-74
2023/03/10 10:23:37;;;;;;;2.33;0.82;;;;;;;;;;4985016;28;20033;-73
2023/03/10 10:26:23;;;;;;;0.95;0.82;;;;;;;;;;4981548;28;20038;-83
2023/03/10 10:29:14;;;;;;;1.92;1.00;;;;;;;;;;4987456;28;20494;-74
2023/03/10 10:32:02;;;;;;;3.72;0.90;;;;;;;;;;4985848;28;20042;-72
2023/03/10 10:34:48;;;;;;;1.67;0.75;;;;;;;;;;4984493;28;20065;-73
2023/03/10 10:37:41;;;;;;;2.13;1.15;;;;;;;;;;4984333;28;20045;-74
2023/03/10 10:40:28;;;;;;;2.55;1.25;;;;;;;;;;4985825;28;20037;-74
2023/03/10 10:43:17;;;;;;;2.25;0.85;;;;;;;;;;4983096;28;20036;-72
2023/03/10 10:46:04;;;;;;;2.38;0.90;;;;;;;;;;4992934;28;20033;-78
2023/03/10 10:48:58;;;;;;;3.38;2.10;;;;;;;;;;4988534;28;20045;-74
2023/03/10 10:51:54;;;;;;;2.22;1.00;;;;;;;;;;4983582;28;20121;-73
2023/03/10 10:54:43;;;;;;;2.65;0.93;;;;;;;;;;4971938;28;20023;-72
2023/03/10 10:57:34;;;;;;;1.90;0.80;;;;;;;;;;4983667;28;20057;-74
2023/03/10 11:00:27;;;;;;;2.75;0.90;;;;;;;;;;4987260;28;20169;-74
2023/03/10 11:03:23;;;;;;;3.65;0.82;;;;;;;;;;4981701;28;20026;-70
2023/03/10 11:06:12;;;;;;;2.92;1.02;;;;;;;;;;4975139;28;20033;-74
2023/03/10 11:09:03;;;;;;;3.35;1.67;;;;;;;;;;4983306;28;20038;-78
2023/03/10 11:12:06;;;;;;;2.88;0.80;;;;;;;;;;4970621;28;20045;-79
2023/03/10 11:15:02;;;;;;;3.45;1.48;;;;;;;;;;4984639;28;20035;-78
2023/03/10 11:17:56;;;;;;;2.60;0.93;;;;;;;;;;4998877;28;20198;-81
2023/03/10 11:20:42;;;;;;;2.40;0.85;;;;;;;;;;4985031;28;20100;-80
2023/03/10 11:23:47;;;;;;;4.40;1.27;;;;;;;;;;4981137;28;20032;-76
2023/03/10 11:26:45;;;;;;;5.53;0.80;;;;;;;;;;4979976;28;20053;-79
2023/03/10 11:29:30;;;;;;;1.75;0.98;;;;;;;;;;4976321;28;20044;-80
2023/03/10 11:32:25;;;;;;;1.40;0.77;;;;;;;;;;4985232;28;20038;-83
2023/03/10 11:35:34;;;;;;;4.85;0.90;;;;;;;;;;4967111;28;20045;-79
2023/03/10 11:38:42;;;;;;;5.72;1.77;;;;;;;;;;4978082;28;20023;-82
2023/03/10 11:41:30;;;;;;;3.83;1.15;;;;;;;;;;4988156;28;20164;-74
2023/03/10 11:44:26;;;;;;;3.38;0.95;;;;;;;;;;4966351;28;20370;-73
2023/03/10 11:47:19;;;;;;;1.40;0.75;;;;;;;;;;4979040;28;20529;-74
2023/03/10 11:50:15;;;;;;;1.85;0.77;;;;;;;;;;4988721;28;20083;-74
2023/03/10 11:53:03;;;;;;;1.98;1.27;;;;;;;;;;4987805;28;20060;-73
2023/03/10 11:55:49;;;;;;;3.72;1.00;;;;;;;;;;4981750;28;20044;-75
2023/03/10 11:58:53;;;;;;;2.45;1.17;;;;;;;;;;4981462;28;20112;-73
2023/03/10 12:01:38;;;;;;;3.45;0.93;;;;;;;;;;5021622;23;20049;-76
2023/03/10 12:04:39;;;;;;;2.08;0.98;;;;;;;;;;4991088;28;20125;-79
2023/03/10 12:07:27;;;;;;;2.65;1.13;;;;;;;;;;4993041;28;20041;-77
2023/03/10 12:10:15;;;;;;;7.35;1.08;;;;;;;;;;4991219;28;20034;-76
2023/03/10 12:13:00;;;;;;;2.90;0.98;;;;;;;;;;4990481;28;20025;-75
2023/03/10 12:15:47;;;;;;;5.13;1.10;;;;;;;;;;4992915;28;20080;-75
2023/03/10 12:18:32;;;;;;;2.03;0.90;;;;;;;;;;4992800;28;20137;-66
2023/03/10 12:21:19;;;;;;;2.95;0.90;;;;;;;;;;4984010;28;20038;-67
2023/03/10 12:24:24;;;;;;;2.28;1.00;;;;;;;;;;4993214;28;20037;-67
2023/03/10 12:27:10;;;;;;;0.95;0.68;;;;;;;;;;4993860;28;20045;-67
2023/03/10 12:29:55;;;;;;;1.80;0.77;;;;;;;;;;4987707;28;20544;-70
2023/03/10 12:32:42;;;;;;;1.23;0.60;;;;;;;;;;4982850;28;20034;-70
2023/03/10 12:35:27;;;;;;;0.80;0.75;;;;;;;;;;4988098;28;20033;-62
2023/03/10 12:38:21;;;;;;;1.02;0.70;;;;;;;;;;4991316;28;20029;-68
2023/03/10 12:41:06;;;;;;;2.05;1.10;;;;;;;;;;4991580;28;20041;-67
2023/03/10 12:44:23;;;;;;;1.05;0.70;;;;;;;;;;4992052;28;20069;-69
2023/03/10 12:47:27;;;;;;;3.25;0.77;;;;;;;;;;4989605;28;20123;-68
2023/03/10 12:50:15;;;;;;;0.77;0.63;;;;;;;;;;4990199;28;20101;-70
2023/03/10 12:53:06;;;;;;;1.33;0.90;;;;;;;;;;5000718;28;20036;-66
2023/03/10 12:56:14;;;;;;;1.45;0.90;;;;;;;;;;4995468;28;20041;-69
2023/03/10 12:59:16;;;;;;;0.98;0.60;;;;;;;;;;4993595;28;20492;-70
2023/03/10 13:02:02;;;;;;;0.60;0.60;;;;;;;;;;4993475;28;20092;-70
2023/03/10 13:04:48;;;;;;;0.70;0.70;;;;;;;;;;4991528;28;20045;-69
2023/03/10 13:07:34;;;;;;;2.55;1.35;;;;;;;;;;5000597;28;20043;-67
2023/03/10 13:10:21;;;;;;;1.75;0.70;;;;;;;;;;4992753;28;20057;-68
2023/03/10 13:13:07;;;;;;;0.68;0.50;;;;;;;;;;4996486;28;20041;-75
2023/03/10 13:16:00;;;;;;;1.48;0.85;;;;;;;;;;4992552;28;20045;-75
2023/03/10 13:18:47;;;;;;;1.88;0.70;;;;;;;;;;5004435;28;20037;-72
2023/03/10 13:21:34;;;;;;;1.10;0.50;;;;;;;;;;4986480;28;20080;-70
2023/03/10 13:24:21;;;;;;;3.40;0.80;;;;;;;;;;4994515;28;20080;-70
2023/03/10 13:27:14;;;;;;;0.90;0.60;;;;;;;;;;4997750;28;20026;-71
2023/03/10 13:30:03;;;;;;;0.50;0.50;;;;;;;;;;4996121;28;20111;-67
2023/03/10 13:33:00;;;;;;;1.50;0.87;;;;;;;;;;4979432;28;20034;-78
2023/03/10 13:35:46;;;;;;;2.00;1.02;;;;;;;;;;4991284;28;20061;-70
2023/03/10 13:38:31;;;;;;;2.95;0.60;;;;;;;;;;4990875;28;20033;-69
2023/03/10 13:41:16;;;;;;;1.17;0.60;;;;;;;;;;4995187;28;20052;-70
2023/03/10 13:44:01;;;;;;;0.63;0.60;;;;;;;;;;4982452;28;20030;-70
2023/03/10 13:46:49;;;;;;;1.48;0.50;;;;;;;;;;4980369;28;20080;-70
2023/03/10 13:49:35;;;;;;;0.47;0.47;;;;;;;;;;4993097;28;20628;-76
2023/03/10 13:52:22;;;;;;;0.82;0.50;;;;;;;;;;4971943;28;20046;-70
2023/03/10 13:55:11;;;;;;;0.52;0.50;;;;;;;;;;4997111;28;20328;-70
2023/03/10 13:57:57;;;;;;;0.50;0.50;;;;;;;;;;5001901;28;20034;-73
2023/03/10 14:00:46;;;;;;;2.28;0.60;;;;;;;;;;4992215;28;20033;-75
2023/03/10 14:03:33;;;;;;;0.50;0.50;;;;;;;;;;4994054;28;20037;-73
2023/03/10 14:06:19;;;;;;;2.05;0.75;;;;;;;;;;4993199;28;21308;-71
2023/03/10 14:09:14;;;;;;;0.45;0.45;;;;;;;;;;4993298;28;20460;-70
2023/03/10 14:12:00;;;;;;;0.85;0.52;;;;;;;;;;4992135;28;20041;-77
2023/03/10 14:14:45;;;;;;;0.73;0.73;;;;;;;;;;4978257;28;20041;-76
2023/03/10 14:17:32;;;;;;;1.42;0.82;;;;;;;;;;4983189;28;20408;-73
2023/03/10 14:20:31;;;;;;;0.95;0.75;;;;;;;;;;4990682;28;21250;-71
2023/03/10 14:23:16;;;;;;;1.47;0.60;;;;;;;;;;4995430;28;20074;-69
2023/03/10 14:26:06;;;;;;;0.73;0.60;;;;;;;;;;4994061;28;20272;-70
2023/03/10 14:28:52;;;;;;;1.00;0.55;;;;;;;;;;5004174;28;20085;-79
2023/03/10 14:31:37;;;;;;;1.77;0.75;;;;;;;;;;4999153;28;20026;-77
2023/03/10 14:34:22;;;;;;;1.38;0.85;;;;;;;;;;4993914;28;20041;-85
2023/03/10 14:37:07;;;;;;;0.73;0.70;;;;;;;;;;4988344;28;20086;-82
2023/03/10 14:39:52;;;;;;;1.65;0.70;;;;;;;;;;4992975;28;20029;-79
2023/03/10 14:42:39;;;;;;;1.98;0.70;;;;;;;;;;4990227;28;20563;-78
2023/03/10 14:45:27;;;;;;;0.50;0.50;;;;;;;;;;4994263;28;20386;-66
2023/03/10 14:48:14;;;;;;;0.77;0.60;;;;;;;;;;4989700;28;20083;-68
2023/03/10 14:50:59;;;;;;;0.60;0.60;;;;;;;;;;4990712;28;20104;-66
2023/03/10 14:53:45;;;;;;;1.27;0.60;;;;;;;;;;4994218;28;20409;-68
2023/03/10 14:56:30;;;;;;;0.63;0.60;;;;;;;;;;4991151;28;20069;-68
2023/03/10 14:59:15;;;;;;;0.70;0.70;;;;;;;;;;4990589;28;20046;-69
2023/03/10 15:02:05;;;;;;;2.33;0.80;;;;;;;;;;4998882;28;20045;-78
2023/03/10 15:04:50;;;;;;;0.50;0.50;;;;;;;;;;4993458;28;20100;-80
2023/03/10 15:07:35;;;;;;;0.75;0.50;;;;;;;;;;4989118;28;20162;-74
2023/03/10 15:10:21;;;;;;;0.50;0.50;;;;;;;;;;4988917;28;20064;-78
2023/03/10 15:13:06;;;;;;;0.70;0.50;;;;;;;;;;4991134;28;20033;-73
2023/03/10 15:15:52;;;;;;;0.55;0.55;;;;;;;;;;4991450;28;20038;-71
2023/03/10 15:18:37;;;;;;;0.50;0.50;;;;;;;;;;4990690;28;20034;-70
2023/03/10 15:21:22;;;;;;;0.50;0.50;;;;;;;;;;4989499;28;20034;-72
2023/03/10 15:24:08;;;;;;;0.85;0.85;;;;;;;;;;4978171;28;20034;-78
2023/03/10 15:26:53;;;;;;;2.15;0.80;;;;;;;;;;4984360;28;20117;-74
2023/03/10 15:29:38;;;;;;;0.82;0.60;;;;;;;;;;4993778;28;20758;-81
2023/03/10 15:32:23;;;;;;;0.57;0.50;;;;;;;;;;4995395;28;20034;-71
2023/03/10 15:35:09;;;;;;;0.68;0.50;;;;;;;;;;4994170;28;20045;-78
2023/03/10 15:37:55;;;;;;;0.50;0.50;;;;;;;;;;4996222;28;20038;-73
2023/03/10 15:40:40;;;;;;;1.20;0.70;;;;;;;;;;4988436;28;20029;-65
2023/03/10 15:43:25;;;;;;;1.00;0.77;;;;;;;;;;4992026;28;20029;-70
2023/03/10 15:46:11;;;;;;;0.50;0.50;;;;;;;;;;4986565;28;20667;-68
2023/03/10 15:48:56;;;;;;;3.85;0.98;;;;;;;;;;4991901;28;20384;-68
2023/03/10 15:51:41;;;;;;;0.90;0.60;;;;;;;;;;4986870;28;20077;-65
2023/03/10 15:54:27;;;;;;;1.52;1.02;;;;;;;;;;4989992;28;20045;-64
2023/03/10 15:57:12;;;;;;;4.18;0.90;;;;;;;;;;4988818;28;20042;-75
2023/03/10 15:59:57;;;;;;;1.50;0.80;;;;;;;;;;4985437;28;20033;-67
2023/03/10 16:02:43;;;;;;;3.85;1.92;;;;;;;;;;4988886;28;20481;-68
2023/03/10 16:05:28;;;;;;;5.35;1.58;;;;;;;;;;4995917;28;20069;-71
2023/03/10 16:08:13;;;;;;;2.60;0.93;;;;;;;;;;4993454;28;20084;-71
2023/03/10 16:10:59;;;;;;;3.00;0.95;;;;;;;;;;4987150;28;20033;-78
2023/03/10 16:13:45;;;;;;;4.20;1.20;;;;;;;;;;4988624;28;20029;-73
2023/03/10 16:16:30;;;;;;;4.47;1.38;;;;;;;;;;4992952;28;20473;-66
2023/03/10 16:19:16;;;;;;;3.25;1.38;;;;;;;;;;4976432;28;20088;-74
2023/03/10 16:22:01;;;;;;;5.35;1.42;;;;;;;;;;4990516;28;20052;-67
2023/03/10 16:24:46;;;;;;;4.43;1.02;;;;;;;;;;4983458;28;20042;-70
2023/03/10 16:27:32;;;;;;;3.25;1.20;;;;;;;;;;4989824;28;20065;-68
2023/03/10 16:30:17;;;;;;;5.38;1.50;;;;;;;;;;4993536;28;20109;-69
2023/03/10 16:33:02;;;;;;;3.40;1.10;;;;;;;;;;4994068;28;20660;-68
2023/03/10 16:35:47;;;;;;;3.42;1.02;;;;;;;;;;4978767;28;20034;-67
2023/03/10 16:38:34;;;;;;;6.25;1.30;;;;;;;;;;4997755;28;20517;-79
2023/03/10 16:41:20;;;;;;;3.90;1.00;;;;;;;;;;4996935;28;20042;-76
2023/03/10 16:44:05;;;;;;;1.67;0.80;;;;;;;;;;4997627;28;20041;-75